sensor_id;sensor_type;location;lat;lon;timestamp;P1;durP1;ratioP1;P2;durP2;ratioP2
74415;SDS011;62850;42.428;25.618;2023-03-21T00:01:35;16.25;;;9.35;;
74415;SDS011;62850;42.428;25.618;2023-03-21T00:04:00;15.82;;;10.00;;
74415;SDS011;62850;42.428;25.618;2023-03-21T00:06:26;16.20;;;9.38;;
74415;SDS011;62850;42.428;25.618;2023-03-21T00:08:51;16.17;;;9.27;;
74415;SDS011;62850;42.428;25.618;2023-03-21T00:11:17;17.80;;;9.25;;
74415;SDS011;62850;42.428;25.618;2023-03-21T00:13:43;16.80;;;9.63;;
74415;SDS011;62850;42.428;25.618;2023-03-21T00:18:39;17.88;;;8.90;;
74415;SDS011;62850;42.428;25.618;2023-03-21T00:21:10;16.60;;;9.43;;
74415;SDS011;62850;42.428;25.618;2023-03-21T00:23:39;15.07;;;8.70;;
74415;SDS011;62850;42.428;25.618;2023-03-21T00:26:05;14.07;;;8.90;;
74415;SDS011;62850;42.428;25.618;2023-03-21T00:28:34;18.58;;;10.00;;
74415;SDS011;62850;42.428;25.618;2023-03-21T00:31:04;17.83;;;9.82;;
74415;SDS011;62850;42.428;25.618;2023-03-21T00:33:30;18.77;;;9.35;;
74415;SDS011;62850;42.428;25.618;2023-03-21T00:35:55;16.52;;;9.60;;
74415;SDS011;62850;42.428;25.618;2023-03-21T00:38:22;18.67;;;9.95;;
74415;SDS011;62850;42.428;25.618;2023-03-21T00:40:48;14.75;;;9.40;;
74415;SDS011;62850;42.428;25.618;2023-03-21T00:43:15;16.80;;;9.60;;
74415;SDS011;62850;42.428;25.618;2023-03-21T00:45:41;18.95;;;9.88;;
74415;SDS011;62850;42.428;25.618;2023-03-21T00:48:11;17.63;;;9.40;;
74415;SDS011;62850;42.428;25.618;2023-03-21T00:50:37;15.77;;;8.85;;
74415;SDS011;62850;42.428;25.618;2023-03-21T00:53:04;16.42;;;9.48;;
74415;SDS011;62850;42.428;25.618;2023-03-21T00:55:30;17.05;;;9.18;;
74415;SDS011;62850;42.428;25.618;2023-03-21T00:57:56;13.15;;;8.63;;
74415;SDS011;62850;42.428;25.618;2023-03-21T01:00:21;17.85;;;9.60;;
74415;SDS011;62850;42.428;25.618;2023-03-21T01:02:47;16.02;;;8.95;;
74415;SDS011;62850;42.428;25.618;2023-03-21T01:05:28;17.23;;;9.95;;
74415;SDS011;62850;42.428;25.618;2023-03-21T01:08:14;19.23;;;10.15;;
74415;SDS011;62850;42.428;25.618;2023-03-21T01:10:42;18.02;;;10.35;;
74415;SDS011;62850;42.428;25.618;2023-03-21T01:13:09;19.88;;;10.15;;
74415;SDS011;62850;42.428;25.618;2023-03-21T01:15:36;20.02;;;10.88;;
74415;SDS011;62850;42.428;25.618;2023-03-21T01:18:09;18.00;;;11.23;;
74415;SDS011;62850;42.428;25.618;2023-03-21T01:20:35;18.10;;;10.63;;
74415;SDS011;62850;42.428;25.618;2023-03-21T01:23:00;23.45;;;12.23;;
74415;SDS011;62850;42.428;25.618;2023-03-21T01:25:26;18.83;;;11.15;;
74415;SDS011;62850;42.428;25.618;2023-03-21T01:27:51;21.98;;;13.15;;
74415;SDS011;62850;42.428;25.618;2023-03-21T01:30:18;27.27;;;13.80;;
74415;SDS011;62850;42.428;25.618;2023-03-21T01:32:44;28.40;;;14.10;;
74415;SDS011;62850;42.428;25.618;2023-03-21T01:35:10;26.92;;;13.73;;
74415;SDS011;62850;42.428;25.618;2023-03-21T01:37:36;24.65;;;12.95;;
74415;SDS011;62850;42.428;25.618;2023-03-21T01:40:02;20.60;;;12.23;;
74415;SDS011;62850;42.428;25.618;2023-03-21T01:42:29;19.23;;;11.00;;
74415;SDS011;62850;42.428;25.618;2023-03-21T01:45:02;18.25;;;10.80;;
74415;SDS011;62850;42.428;25.618;2023-03-21T01:47:30;22.10;;;12.00;;
74415;SDS011;62850;42.428;25.618;2023-03-21T01:49:56;20.83;;;11.23;;
74415;SDS011;62850;42.428;25.618;2023-03-21T01:52:27;21.35;;;11.85;;
74415;SDS011;62850;42.428;25.618;2023-03-21T01:54:56;21.23;;;11.00;;
74415;SDS011;62850;42.428;25.618;2023-03-21T01:57:31;18.13;;;10.32;;
74415;SDS011;62850;42.428;25.618;2023-03-21T02:00:02;22.10;;;10.63;;
74415;SDS011;62850;42.428;25.618;2023-03-21T02:02:38;21.10;;;11.38;;
74415;SDS011;62850;42.428;25.618;2023-03-21T02:05:18;21.38;;;11.27;;
74415;SDS011;62850;42.428;25.618;2023-03-21T02:07:51;20.98;;;10.88;;
74415;SDS011;62850;42.428;25.618;2023-03-21T02:10:16;21.15;;;11.30;;
74415;SDS011;62850;42.428;25.618;2023-03-21T02:12:42;17.33;;;10.98;;
74415;SDS011;62850;42.428;25.618;2023-03-21T02:15:08;20.25;;;11.52;;
74415;SDS011;62850;42.428;25.618;2023-03-21T02:21:21;24.88;;;11.38;;
74415;SDS011;62850;42.428;25.618;2023-03-21T02:35:21;21.80;;;12.80;;
74415;SDS011;62850;42.428;25.618;2023-03-21T02:38:10;24.45;;;12.75;;
74415;SDS011;62850;42.428;25.618;2023-03-21T02:40:49;26.02;;;12.77;;
74415;SDS011;62850;42.428;25.618;2023-03-21T02:51:33;21.02;;;12.18;;
74415;SDS011;62850;42.428;25.618;2023-03-21T02:54:01;26.25;;;11.70;;
74415;SDS011;62850;42.428;25.618;2023-03-21T02:56:29;20.55;;;11.05;;
74415;SDS011;62850;42.428;25.618;2023-03-21T02:58:57;20.27;;;11.63;;
74415;SDS011;62850;42.428;25.618;2023-03-21T03:01:24;22.77;;;12.35;;
74415;SDS011;62850;42.428;25.618;2023-03-21T03:03:50;26.58;;;12.35;;
74415;SDS011;62850;42.428;25.618;2023-03-21T03:06:17;25.23;;;12.65;;
74415;SDS011;62850;42.428;25.618;2023-03-21T03:11:35;24.55;;;13.02;;
74415;SDS011;62850;42.428;25.618;2023-03-21T03:19:26;24.85;;;12.80;;
74415;SDS011;62850;42.428;25.618;2023-03-21T03:22:13;23.48;;;12.32;;
74415;SDS011;62850;42.428;25.618;2023-03-21T03:24:45;24.05;;;12.32;;
74415;SDS011;62850;42.428;25.618;2023-03-21T03:27:17;23.15;;;12.55;;
74415;SDS011;62850;42.428;25.618;2023-03-21T03:29:48;21.10;;;12.05;;
74415;SDS011;62850;42.428;25.618;2023-03-21T03:32:23;22.98;;;12.95;;
74415;SDS011;62850;42.428;25.618;2023-03-21T03:34:54;24.08;;;12.40;;
74415;SDS011;62850;42.428;25.618;2023-03-21T03:37:28;19.80;;;11.57;;
74415;SDS011;62850;42.428;25.618;2023-03-21T03:40:02;18.23;;;11.25;;
74415;SDS011;62850;42.428;25.618;2023-03-21T03:42:45;20.63;;;11.88;;
74415;SDS011;62850;42.428;25.618;2023-03-21T03:45:15;17.85;;;10.65;;
74415;SDS011;62850;42.428;25.618;2023-03-21T03:47:51;23.20;;;12.15;;
74415;SDS011;62850;42.428;25.618;2023-03-21T03:50:31;19.98;;;11.05;;
74415;SDS011;62850;42.428;25.618;2023-03-21T03:53:15;19.88;;;11.23;;
74415;SDS011;62850;42.428;25.618;2023-03-21T03:55:45;21.05;;;11.18;;
74415;SDS011;62850;42.428;25.618;2023-03-21T03:58:15;20.77;;;11.02;;
74415;SDS011;62850;42.428;25.618;2023-03-21T04:00:43;23.95;;;11.00;;
74415;SDS011;62850;42.428;25.618;2023-03-21T04:03:09;21.60;;;11.50;;
74415;SDS011;62850;42.428;25.618;2023-03-21T04:05:35;20.80;;;11.63;;
74415;SDS011;62850;42.428;25.618;2023-03-21T04:08:00;20.08;;;11.05;;
74415;SDS011;62850;42.428;25.618;2023-03-21T04:10:26;23.85;;;11.07;;
74415;SDS011;62850;42.428;25.618;2023-03-21T04:12:52;27.85;;;11.93;;
74415;SDS011;62850;42.428;25.618;2023-03-21T04:15:17;17.40;;;10.13;;
74415;SDS011;62850;42.428;25.618;2023-03-21T04:17:43;18.88;;;12.07;;
74415;SDS011;62850;42.428;25.618;2023-03-21T04:20:09;20.17;;;11.52;;
74415;SDS011;62850;42.428;25.618;2023-03-21T04:22:35;27.33;;;12.57;;
74415;SDS011;62850;42.428;25.618;2023-03-21T04:25:02;22.55;;;11.55;;
74415;SDS011;62850;42.428;25.618;2023-03-21T04:27:29;32.78;;;12.43;;
74415;SDS011;62850;42.428;25.618;2023-03-21T04:29:56;35.30;;;12.10;;
74415;SDS011;62850;42.428;25.618;2023-03-21T04:32:22;31.60;;;11.35;;
74415;SDS011;62850;42.428;25.618;2023-03-21T04:34:49;27.80;;;11.88;;
74415;SDS011;62850;42.428;25.618;2023-03-21T04:37:18;28.10;;;12.70;;
74415;SDS011;62850;42.428;25.618;2023-03-21T04:39:45;24.10;;;13.63;;
74415;SDS011;62850;42.428;25.618;2023-03-21T04:42:12;31.15;;;15.90;;
74415;SDS011;62850;42.428;25.618;2023-03-21T04:44:39;44.72;;;24.75;;
74415;SDS011;62850;42.428;25.618;2023-03-21T04:47:04;43.00;;;23.88;;
74415;SDS011;62850;42.428;25.618;2023-03-21T04:49:30;36.22;;;18.33;;
74415;SDS011;62850;42.428;25.618;2023-03-21T04:51:56;28.13;;;15.10;;
74415;SDS011;62850;42.428;25.618;2023-03-21T04:54:22;28.17;;;14.38;;
74415;SDS011;62850;42.428;25.618;2023-03-21T04:56:47;31.33;;;14.07;;
74415;SDS011;62850;42.428;25.618;2023-03-21T04:59:13;28.15;;;13.30;;
74415;SDS011;62850;42.428;25.618;2023-03-21T05:01:40;26.38;;;13.45;;
74415;SDS011;62850;42.428;25.618;2023-03-21T05:04:08;29.77;;;14.00;;
74415;SDS011;62850;42.428;25.618;2023-03-21T05:06:34;24.83;;;13.05;;
74415;SDS011;62850;42.428;25.618;2023-03-21T05:08:59;28.73;;;12.27;;
74415;SDS011;62850;42.428;25.618;2023-03-21T05:11:29;24.65;;;12.32;;
74415;SDS011;62850;42.428;25.618;2023-03-21T05:13:56;29.83;;;12.32;;
74415;SDS011;62850;42.428;25.618;2023-03-21T05:16:22;24.67;;;12.60;;
74415;SDS011;62850;42.428;25.618;2023-03-21T05:18:51;22.90;;;12.30;;
74415;SDS011;62850;42.428;25.618;2023-03-21T05:21:19;28.20;;;13.52;;
74415;SDS011;62850;42.428;25.618;2023-03-21T05:23:45;26.15;;;13.48;;
74415;SDS011;62850;42.428;25.618;2023-03-21T05:26:19;33.28;;;12.48;;
74415;SDS011;62850;42.428;25.618;2023-03-21T05:28:46;37.45;;;13.50;;
74415;SDS011;62850;42.428;25.618;2023-03-21T05:31:16;31.58;;;11.95;;
74415;SDS011;62850;42.428;25.618;2023-03-21T05:33:45;30.10;;;12.55;;
74415;SDS011;62850;42.428;25.618;2023-03-21T05:36:14;24.45;;;11.90;;
74415;SDS011;62850;42.428;25.618;2023-03-21T05:38:39;27.75;;;12.23;;
74415;SDS011;62850;42.428;25.618;2023-03-21T05:41:10;22.55;;;11.30;;
74415;SDS011;62850;42.428;25.618;2023-03-21T05:43:39;29.67;;;12.15;;
74415;SDS011;62850;42.428;25.618;2023-03-21T05:46:05;28.05;;;12.15;;
74415;SDS011;62850;42.428;25.618;2023-03-21T05:48:30;25.48;;;11.27;;
74415;SDS011;62850;42.428;25.618;2023-03-21T05:50:56;23.08;;;10.80;;
74415;SDS011;62850;42.428;25.618;2023-03-21T05:53:21;23.02;;;11.48;;
74415;SDS011;62850;42.428;25.618;2023-03-21T05:55:47;28.27;;;11.30;;
74415;SDS011;62850;42.428;25.618;2023-03-21T05:58:12;38.90;;;11.25;;
74415;SDS011;62850;42.428;25.618;2023-03-21T06:00:38;27.42;;;11.07;;
74415;SDS011;62850;42.428;25.618;2023-03-21T06:03:03;24.63;;;10.30;;
74415;SDS011;62850;42.428;25.618;2023-03-21T06:05:29;25.90;;;9.85;;
74415;SDS011;62850;42.428;25.618;2023-03-21T06:07:57;21.92;;;9.90;;
74415;SDS011;62850;42.428;25.618;2023-03-21T06:10:23;20.10;;;9.15;;
74415;SDS011;62850;42.428;25.618;2023-03-21T06:12:48;22.80;;;9.15;;
74415;SDS011;62850;42.428;25.618;2023-03-21T06:15:14;24.25;;;10.00;;
74415;SDS011;62850;42.428;25.618;2023-03-21T06:17:39;23.27;;;9.65;;
74415;SDS011;62850;42.428;25.618;2023-03-21T06:20:05;21.85;;;9.82;;
74415;SDS011;62850;42.428;25.618;2023-03-21T06:22:32;21.70;;;9.93;;
74415;SDS011;62850;42.428;25.618;2023-03-21T06:24:58;25.23;;;9.73;;
74415;SDS011;62850;42.428;25.618;2023-03-21T06:27:23;25.40;;;9.95;;
74415;SDS011;62850;42.428;25.618;2023-03-21T06:29:49;23.83;;;10.45;;
74415;SDS011;62850;42.428;25.618;2023-03-21T06:32:15;22.45;;;9.38;;
74415;SDS011;62850;42.428;25.618;2023-03-21T06:34:41;20.58;;;9.93;;
74415;SDS011;62850;42.428;25.618;2023-03-21T06:37:06;22.88;;;9.77;;
74415;SDS011;62850;42.428;25.618;2023-03-21T06:39:32;21.23;;;9.15;;
74415;SDS011;62850;42.428;25.618;2023-03-21T06:41:58;22.90;;;11.30;;
74415;SDS011;62850;42.428;25.618;2023-03-21T06:44:25;26.58;;;9.73;;
74415;SDS011;62850;42.428;25.618;2023-03-21T06:46:51;25.05;;;10.27;;
74415;SDS011;62850;42.428;25.618;2023-03-21T06:49:16;28.77;;;10.93;;
74415;SDS011;62850;42.428;25.618;2023-03-21T06:51:42;21.30;;;10.25;;
74415;SDS011;62850;42.428;25.618;2023-03-21T06:54:08;29.35;;;10.45;;
74415;SDS011;62850;42.428;25.618;2023-03-21T06:56:33;32.17;;;11.82;;
74415;SDS011;62850;42.428;25.618;2023-03-21T06:58:59;26.02;;;10.23;;
74415;SDS011;62850;42.428;25.618;2023-03-21T07:01:24;26.83;;;10.75;;
74415;SDS011;62850;42.428;25.618;2023-03-21T07:03:51;20.15;;;10.10;;
74415;SDS011;62850;42.428;25.618;2023-03-21T07:06:17;27.33;;;11.32;;
74415;SDS011;62850;42.428;25.618;2023-03-21T07:08:43;26.38;;;11.02;;
74415;SDS011;62850;42.428;25.618;2023-03-21T07:11:08;27.40;;;11.88;;
74415;SDS011;62850;42.428;25.618;2023-03-21T07:13:34;27.88;;;11.60;;
74415;SDS011;62850;42.428;25.618;2023-03-21T07:16:00;27.40;;;11.98;;
74415;SDS011;62850;42.428;25.618;2023-03-21T07:18:26;25.88;;;11.48;;
74415;SDS011;62850;42.428;25.618;2023-03-21T07:20:51;28.13;;;12.15;;
74415;SDS011;62850;42.428;25.618;2023-03-21T07:23:21;23.80;;;11.50;;
74415;SDS011;62850;42.428;25.618;2023-03-21T07:25:48;31.02;;;12.13;;
74415;SDS011;62850;42.428;25.618;2023-03-21T07:28:14;24.27;;;11.82;;
74415;SDS011;62850;42.428;25.618;2023-03-21T07:30:41;32.70;;;11.52;;
74415;SDS011;62850;42.428;25.618;2023-03-21T07:33:08;25.15;;;12.13;;
74415;SDS011;62850;42.428;25.618;2023-03-21T07:35:33;25.00;;;11.60;;
74415;SDS011;62850;42.428;25.618;2023-03-21T07:38:01;28.98;;;12.20;;
74415;SDS011;62850;42.428;25.618;2023-03-21T07:40:28;32.20;;;12.98;;
74415;SDS011;62850;42.428;25.618;2023-03-21T07:42:53;30.52;;;12.65;;
74415;SDS011;62850;42.428;25.618;2023-03-21T07:45:18;24.13;;;11.95;;
74415;SDS011;62850;42.428;25.618;2023-03-21T07:47:46;32.25;;;11.68;;
74415;SDS011;62850;42.428;25.618;2023-03-21T07:50:12;27.52;;;13.20;;
74415;SDS011;62850;42.428;25.618;2023-03-21T07:52:38;35.00;;;15.40;;
74415;SDS011;62850;42.428;25.618;2023-03-21T07:55:04;40.13;;;15.45;;
74415;SDS011;62850;42.428;25.618;2023-03-21T07:57:30;33.55;;;15.93;;
74415;SDS011;62850;42.428;25.618;2023-03-21T07:59:56;36.20;;;17.77;;
74415;SDS011;62850;42.428;25.618;2023-03-21T08:02:22;33.67;;;15.52;;
74415;SDS011;62850;42.428;25.618;2023-03-21T08:04:48;40.33;;;16.50;;
74415;SDS011;62850;42.428;25.618;2023-03-21T08:07:13;40.17;;;15.70;;
74415;SDS011;62850;42.428;25.618;2023-03-21T08:09:39;35.53;;;16.00;;
74415;SDS011;62850;42.428;25.618;2023-03-21T08:12:05;27.55;;;12.60;;
74415;SDS011;62850;42.428;25.618;2023-03-21T08:14:32;32.60;;;14.30;;
74415;SDS011;62850;42.428;25.618;2023-03-21T08:16:58;45.90;;;18.27;;
74415;SDS011;62850;42.428;25.618;2023-03-21T08:19:24;35.58;;;14.32;;
74415;SDS011;62850;42.428;25.618;2023-03-21T08:21:51;47.17;;;20.30;;
74415;SDS011;62850;42.428;25.618;2023-03-21T08:24:17;37.72;;;15.38;;
74415;SDS011;62850;42.428;25.618;2023-03-21T08:26:42;27.65;;;11.90;;
74415;SDS011;62850;42.428;25.618;2023-03-21T08:29:10;26.83;;;11.35;;
74415;SDS011;62850;42.428;25.618;2023-03-21T08:31:38;25.33;;;11.27;;
74415;SDS011;62850;42.428;25.618;2023-03-21T08:34:04;30.58;;;11.40;;
74415;SDS011;62850;42.428;25.618;2023-03-21T08:36:29;25.35;;;11.80;;
74415;SDS011;62850;42.428;25.618;2023-03-21T08:38:56;28.85;;;11.88;;
74415;SDS011;62850;42.428;25.618;2023-03-21T08:41:29;27.67;;;12.05;;
74415;SDS011;62850;42.428;25.618;2023-03-21T08:43:55;28.77;;;10.77;;
74415;SDS011;62850;42.428;25.618;2023-03-21T08:46:21;23.85;;;10.60;;
74415;SDS011;62850;42.428;25.618;2023-03-21T08:48:46;23.50;;;9.93;;
74415;SDS011;62850;42.428;25.618;2023-03-21T08:51:12;24.25;;;10.57;;
74415;SDS011;62850;42.428;25.618;2023-03-21T08:53:37;19.67;;;9.52;;
74415;SDS011;62850;42.428;25.618;2023-03-21T08:56:03;24.60;;;10.63;;
74415;SDS011;62850;42.428;25.618;2023-03-21T08:58:28;22.73;;;10.73;;
74415;SDS011;62850;42.428;25.618;2023-03-21T09:00:54;23.27;;;10.50;;
74415;SDS011;62850;42.428;25.618;2023-03-21T09:03:20;21.60;;;9.90;;
74415;SDS011;62850;42.428;25.618;2023-03-21T09:05:45;22.50;;;10.02;;
74415;SDS011;62850;42.428;25.618;2023-03-21T09:08:11;23.85;;;10.02;;
74415;SDS011;62850;42.428;25.618;2023-03-21T09:10:37;23.27;;;9.82;;
74415;SDS011;62850;42.428;25.618;2023-03-21T09:13:03;22.42;;;10.18;;
74415;SDS011;62850;42.428;25.618;2023-03-21T09:15:29;18.70;;;9.20;;
74415;SDS011;62850;42.428;25.618;2023-03-21T09:17:56;20.42;;;9.50;;
74415;SDS011;62850;42.428;25.618;2023-03-21T09:20:24;20.08;;;9.73;;
74415;SDS011;62850;42.428;25.618;2023-03-21T09:22:54;19.83;;;9.52;;
74415;SDS011;62850;42.428;25.618;2023-03-21T09:25:20;25.98;;;10.77;;
74415;SDS011;62850;42.428;25.618;2023-03-21T09:27:47;20.02;;;10.65;;
74415;SDS011;62850;42.428;25.618;2023-03-21T09:30:14;26.50;;;10.63;;
74415;SDS011;62850;42.428;25.618;2023-03-21T09:32:42;18.48;;;10.68;;
74415;SDS011;62850;42.428;25.618;2023-03-21T09:37:40;21.65;;;9.05;;
74415;SDS011;62850;42.428;25.618;2023-03-21T09:40:55;21.77;;;9.30;;
74415;SDS011;62850;42.428;25.618;2023-03-21T09:43:24;19.77;;;10.32;;
74415;SDS011;62850;42.428;25.618;2023-03-21T09:46:03;16.98;;;9.43;;
74415;SDS011;62850;42.428;25.618;2023-03-21T09:49:24;21.02;;;10.00;;
74415;SDS011;62850;42.428;25.618;2023-03-21T09:51:43;26.88;;;9.85;;
74415;SDS011;62850;42.428;25.618;2023-03-21T09:54:17;18.77;;;9.75;;
74415;SDS011;62850;42.428;25.618;2023-03-21T09:56:46;25.27;;;10.00;;
74415;SDS011;62850;42.428;25.618;2023-03-21T09:59:21;21.05;;;9.95;;
74415;SDS011;62850;42.428;25.618;2023-03-21T10:01:52;19.42;;;9.57;;
74415;SDS011;62850;42.428;25.618;2023-03-21T10:04:19;23.95;;;9.65;;
74415;SDS011;62850;42.428;25.618;2023-03-21T10:06:49;21.70;;;10.40;;
74415;SDS011;62850;42.428;25.618;2023-03-21T10:09:22;22.35;;;10.45;;
74415;SDS011;62850;42.428;25.618;2023-03-21T10:11:55;17.80;;;9.57;;
74415;SDS011;62850;42.428;25.618;2023-03-21T10:14:30;25.35;;;10.32;;
74415;SDS011;62850;42.428;25.618;2023-03-21T10:17:14;19.45;;;9.55;;
74415;SDS011;62850;42.428;25.618;2023-03-21T10:20:00;22.15;;;9.30;;
74415;SDS011;62850;42.428;25.618;2023-03-21T10:22:52;20.73;;;9.63;;
74415;SDS011;62850;42.428;25.618;2023-03-21T10:25:30;25.20;;;9.35;;
74415;SDS011;62850;42.428;25.618;2023-03-21T10:28:08;18.88;;;9.07;;
74415;SDS011;62850;42.428;25.618;2023-03-21T10:30:42;24.45;;;8.90;;
74415;SDS011;62850;42.428;25.618;2023-03-21T10:33:18;20.77;;;10.02;;
74415;SDS011;62850;42.428;25.618;2023-03-21T10:35:50;21.15;;;9.50;;
74415;SDS011;62850;42.428;25.618;2023-03-21T10:38:19;23.25;;;9.80;;
74415;SDS011;62850;42.428;25.618;2023-03-21T10:40:47;18.15;;;9.07;;
74415;SDS011;62850;42.428;25.618;2023-03-21T10:45:50;19.63;;;8.68;;
74415;SDS011;62850;42.428;25.618;2023-03-21T10:48:17;23.27;;;9.60;;
74415;SDS011;62850;42.428;25.618;2023-03-21T10:50:43;18.08;;;8.93;;
74415;SDS011;62850;42.428;25.618;2023-03-21T10:55:45;22.95;;;9.93;;
74415;SDS011;62850;42.428;25.618;2023-03-21T10:58:16;17.92;;;9.15;;
74415;SDS011;62850;42.428;25.618;2023-03-21T11:00:55;20.50;;;9.57;;
74415;SDS011;62850;42.428;25.618;2023-03-21T11:03:26;21.48;;;9.48;;
74415;SDS011;62850;42.428;25.618;2023-03-21T11:06:07;17.48;;;9.02;;
74415;SDS011;62850;42.428;25.618;2023-03-21T11:08:39;16.58;;;8.60;;
74415;SDS011;62850;42.428;25.618;2023-03-21T11:11:08;18.63;;;8.75;;
74415;SDS011;62850;42.428;25.618;2023-03-21T11:13:43;22.90;;;9.07;;
74415;SDS011;62850;42.428;25.618;2023-03-21T11:18:41;16.70;;;8.60;;
74415;SDS011;62850;42.428;25.618;2023-03-21T11:21:13;16.77;;;8.43;;
74415;SDS011;62850;42.428;25.618;2023-03-21T11:23:41;18.83;;;9.02;;
74415;SDS011;62850;42.428;25.618;2023-03-21T11:26:11;16.95;;;8.90;;
74415;SDS011;62850;42.428;25.618;2023-03-21T11:28:44;16.85;;;8.63;;
74415;SDS011;62850;42.428;25.618;2023-03-21T11:31:10;22.85;;;9.45;;
74415;SDS011;62850;42.428;25.618;2023-03-21T11:33:37;19.42;;;9.52;;
74415;SDS011;62850;42.428;25.618;2023-03-21T11:38:48;18.48;;;7.95;;
74415;SDS011;62850;42.428;25.618;2023-03-21T11:41:22;14.88;;;8.00;;
74415;SDS011;62850;42.428;25.618;2023-03-21T11:43:52;18.10;;;7.75;;
74415;SDS011;62850;42.428;25.618;2023-03-21T11:46:22;18.45;;;7.57;;
74415;SDS011;62850;42.428;25.618;2023-03-21T11:48:49;16.00;;;7.95;;
74415;SDS011;62850;42.428;25.618;2023-03-21T12:00:17;23.15;;;9.73;;
74415;SDS011;62850;42.428;25.618;2023-03-21T12:17:00;19.45;;;8.80;;
74415;SDS011;62850;42.428;25.618;2023-03-21T12:24:53;17.20;;;9.23;;
74415;SDS011;62850;42.428;25.618;2023-03-21T12:29:54;19.30;;;8.00;;
74415;SDS011;62850;42.428;25.618;2023-03-21T12:43:43;21.85;;;9.00;;
74415;SDS011;62850;42.428;25.618;2023-03-21T12:49:01;15.25;;;8.23;;
74415;SDS011;62850;42.428;25.618;2023-03-21T12:51:35;18.63;;;8.30;;
74415;SDS011;62850;42.428;25.618;2023-03-21T13:02:45;16.05;;;9.25;;
74415;SDS011;62850;42.428;25.618;2023-03-21T13:05:27;17.85;;;8.57;;
74415;SDS011;62850;42.428;25.618;2023-03-21T13:08:00;15.50;;;8.55;;
74415;SDS011;62850;42.428;25.618;2023-03-21T13:10:44;18.73;;;8.50;;
74415;SDS011;62850;42.428;25.618;2023-03-21T13:19:10;14.40;;;7.93;;
74415;SDS011;62850;42.428;25.618;2023-03-21T13:24:49;18.52;;;9.38;;
74415;SDS011;62850;42.428;25.618;2023-03-21T13:27:29;19.25;;;10.05;;
74415;SDS011;62850;42.428;25.618;2023-03-21T13:30:03;49.42;;;19.35;;
74415;SDS011;62850;42.428;25.618;2023-03-21T13:32:48;23.85;;;11.38;;
74415;SDS011;62850;42.428;25.618;2023-03-21T13:35:19;21.90;;;10.95;;
74415;SDS011;62850;42.428;25.618;2023-03-21T13:38:02;11.60;;;8.13;;
74415;SDS011;62850;42.428;25.618;2023-03-21T13:40:36;12.35;;;8.32;;
74415;SDS011;62850;42.428;25.618;2023-03-21T13:43:30;18.38;;;8.82;;
74415;SDS011;62850;42.428;25.618;2023-03-21T13:45:55;14.13;;;7.68;;
74415;SDS011;62850;42.428;25.618;2023-03-21T13:48:42;13.50;;;7.55;;
74415;SDS011;62850;42.428;25.618;2023-03-21T13:59:09;12.55;;;8.15;;
74415;SDS011;62850;42.428;25.618;2023-03-21T14:01:37;14.75;;;7.60;;
74415;SDS011;62850;42.428;25.618;2023-03-21T14:04:22;16.23;;;8.52;;
74415;SDS011;62850;42.428;25.618;2023-03-21T14:07:04;14.55;;;7.43;;
74415;SDS011;62850;42.428;25.618;2023-03-21T14:12:13;10.77;;;7.45;;
74415;SDS011;62850;42.428;25.618;2023-03-21T14:14:42;13.15;;;7.05;;
74415;SDS011;62850;42.428;25.618;2023-03-21T14:17:12;10.93;;;7.30;;
74415;SDS011;62850;42.428;25.618;2023-03-21T14:19:40;12.25;;;6.72;;
74415;SDS011;62850;42.428;25.618;2023-03-21T14:22:12;13.07;;;6.75;;
74415;SDS011;62850;42.428;25.618;2023-03-21T14:24:37;15.23;;;7.20;;
74415;SDS011;62850;42.428;25.618;2023-03-21T14:27:05;11.45;;;6.85;;
74415;SDS011;62850;42.428;25.618;2023-03-21T14:29:33;13.25;;;7.50;;
74415;SDS011;62850;42.428;25.618;2023-03-21T14:32:00;12.60;;;6.80;;
74415;SDS011;62850;42.428;25.618;2023-03-21T14:34:27;11.38;;;7.38;;
74415;SDS011;62850;42.428;25.618;2023-03-21T14:36:56;15.65;;;7.57;;
74415;SDS011;62850;42.428;25.618;2023-03-21T14:39:22;14.38;;;7.10;;
74415;SDS011;62850;42.428;25.618;2023-03-21T14:41:51;15.35;;;8.15;;
74415;SDS011;62850;42.428;25.618;2023-03-21T14:44:25;16.08;;;6.60;;
74415;SDS011;62850;42.428;25.618;2023-03-21T14:47:06;16.33;;;6.80;;
74415;SDS011;62850;42.428;25.618;2023-03-21T14:49:33;13.85;;;7.03;;
74415;SDS011;62850;42.428;25.618;2023-03-21T14:52:01;15.68;;;7.05;;
74415;SDS011;62850;42.428;25.618;2023-03-21T14:54:30;15.30;;;7.50;;
74415;SDS011;62850;42.428;25.618;2023-03-21T14:56:59;16.15;;;7.00;;
74415;SDS011;62850;42.428;25.618;2023-03-21T14:59:29;17.15;;;7.35;;
74415;SDS011;62850;42.428;25.618;2023-03-21T15:04:24;15.52;;;7.00;;
74415;SDS011;62850;42.428;25.618;2023-03-21T15:06:57;13.98;;;7.28;;
74415;SDS011;62850;42.428;25.618;2023-03-21T15:09:27;13.65;;;7.30;;
74415;SDS011;62850;42.428;25.618;2023-03-21T15:11:55;15.20;;;7.53;;
74415;SDS011;62850;42.428;25.618;2023-03-21T15:14:25;12.73;;;7.50;;
74415;SDS011;62850;42.428;25.618;2023-03-21T15:16:54;14.88;;;7.30;;
74415;SDS011;62850;42.428;25.618;2023-03-21T15:19:28;14.70;;;7.65;;
74415;SDS011;62850;42.428;25.618;2023-03-21T15:21:59;16.13;;;7.57;;
74415;SDS011;62850;42.428;25.618;2023-03-21T15:24:31;12.10;;;7.15;;
74415;SDS011;62850;42.428;25.618;2023-03-21T15:27:05;18.45;;;8.27;;
74415;SDS011;62850;42.428;25.618;2023-03-21T15:29:36;17.92;;;7.65;;
74415;SDS011;62850;42.428;25.618;2023-03-21T15:32:03;20.05;;;7.47;;
74415;SDS011;62850;42.428;25.618;2023-03-21T15:34:31;19.95;;;7.95;;
74415;SDS011;62850;42.428;25.618;2023-03-21T15:36:58;13.00;;;8.02;;
74415;SDS011;62850;42.428;25.618;2023-03-21T15:39:26;17.70;;;8.05;;
74415;SDS011;62850;42.428;25.618;2023-03-21T15:41:57;12.65;;;7.90;;
74415;SDS011;62850;42.428;25.618;2023-03-21T15:44:26;20.20;;;8.20;;
74415;SDS011;62850;42.428;25.618;2023-03-21T15:46:52;20.95;;;8.90;;
74415;SDS011;62850;42.428;25.618;2023-03-21T15:49:19;20.27;;;8.45;;
74415;SDS011;62850;42.428;25.618;2023-03-21T15:51:51;18.60;;;8.50;;
74415;SDS011;62850;42.428;25.618;2023-03-21T15:54:34;22.30;;;8.82;;
74415;SDS011;62850;42.428;25.618;2023-03-21T15:57:16;16.08;;;8.05;;
74415;SDS011;62850;42.428;25.618;2023-03-21T15:59:47;19.05;;;8.30;;
74415;SDS011;62850;42.428;25.618;2023-03-21T16:02:18;15.27;;;8.45;;
74415;SDS011;62850;42.428;25.618;2023-03-21T16:07:47;24.05;;;8.73;;
74415;SDS011;62850;42.428;25.618;2023-03-21T16:10:33;21.02;;;8.65;;
74415;SDS011;62850;42.428;25.618;2023-03-21T16:13:01;16.85;;;8.82;;
74415;SDS011;62850;42.428;25.618;2023-03-21T16:15:27;14.68;;;7.57;;
74415;SDS011;62850;42.428;25.618;2023-03-21T16:17:54;13.38;;;7.72;;
74415;SDS011;62850;42.428;25.618;2023-03-21T16:20:22;17.50;;;8.55;;
74415;SDS011;62850;42.428;25.618;2023-03-21T16:22:50;20.05;;;8.30;;
74415;SDS011;62850;42.428;25.618;2023-03-21T16:25:16;17.23;;;8.75;;
74415;SDS011;62850;42.428;25.618;2023-03-21T16:27:42;19.52;;;8.68;;
74415;SDS011;62850;42.428;25.618;2023-03-21T16:30:10;20.70;;;8.60;;
74415;SDS011;62850;42.428;25.618;2023-03-21T16:32:37;18.77;;;9.38;;
74415;SDS011;62850;42.428;25.618;2023-03-21T16:35:03;20.20;;;9.52;;